createdAt,value
2019-03-03T00:01:52.561Z,66.66
2019-03-03T00:04:23.182Z,66.66
2019-03-03T00:06:53.644Z,66.76
2019-03-03T00:09:25.985Z,67.06
2019-03-03T00:11:56.401Z,66.30
2019-03-03T00:14:26.827Z,67.42
2019-03-03T00:16:57.278Z,67.42
2019-03-03T00:19:27.689Z,67.27
2019-03-03T00:21:58.114Z,67.47
2019-03-03T00:24:28.615Z,67.47
2019-03-03T00:26:59.020Z,67.35
2019-03-03T00:29:29.447Z,66.73
2019-03-03T00:31:59.866Z,66.61
2019-03-03T00:34:30.275Z,66.71
2019-03-03T00:37:04.931Z,66.71
2019-03-03T00:39:45.978Z,67.15
2019-03-03T00:42:26.880Z,66.90
2019-03-03T00:44:58.914Z,66.90
2019-03-03T00:47:35.651Z,66.91
2019-03-03T00:50:09.154Z,66.91
2019-03-03T00:52:41.173Z,67.20
2019-03-03T00:55:15.968Z,67.20
2019-03-03T00:57:50.615Z,67.29
2019-03-03T01:00:24.607Z,67.26
2019-03-03T01:02:59.340Z,67.24
2019-03-03T01:05:34.530Z,67.24
2019-03-03T01:08:12.378Z,67.68
2019-03-03T01:10:44.358Z,67.62
2019-03-03T01:13:22.390Z,67.62
2019-03-03T01:15:54.407Z,67.66
2019-03-03T01:18:32.318Z,67.62
2019-03-03T01:21:08.140Z,67.48
2019-03-03T01:23:42.807Z,67.48
2019-03-03T01:26:13.238Z,67.84
2019-03-03T01:28:43.704Z,67.88
2019-03-03T01:31:14.098Z,68.77
2019-03-03T01:33:45.390Z,68.43
2019-03-03T01:36:15.934Z,68.07
2019-03-03T01:38:46.361Z,68.07
2019-03-03T01:41:16.759Z,68.28
2019-03-03T01:43:47.202Z,68.28
2019-03-03T01:46:17.632Z,68.24
2019-03-03T01:48:48.032Z,68.50
2019-03-03T01:51:18.428Z,68.32
2019-03-03T01:53:48.857Z,68.32
2019-03-03T01:56:19.269Z,68.32
2019-03-03T01:58:51.259Z,68.68
2019-03-03T02:01:21.639Z,68.43
2019-03-03T02:03:52.329Z,68.43
2019-03-03T02:06:23.014Z,68.58
2019-03-03T02:08:53.647Z,69.09
2019-03-03T02:11:27.091Z,69.64
2019-03-03T02:13:57.835Z,69.69
2019-03-03T02:16:28.501Z,69.69
2019-03-03T02:18:59.163Z,69.70
2019-03-03T02:21:29.842Z,69.70
2019-03-03T02:24:00.242Z,70.31
2019-03-03T02:26:30.758Z,70.31
2019-03-03T02:29:01.226Z,71.27
2019-03-03T02:31:31.675Z,71.27
2019-03-03T02:34:02.055Z,71.01
2019-03-03T02:36:32.439Z,71.24
2019-03-03T02:39:04.411Z,71.24
2019-03-03T02:41:34.862Z,71.15
2019-03-03T02:44:05.457Z,71.07
2019-03-03T02:46:35.900Z,70.87
2019-03-03T02:49:06.405Z,70.65
2019-03-03T02:51:36.992Z,70.16
2019-03-03T02:54:07.423Z,69.98
2019-03-03T02:56:37.862Z,69.69
2019-03-03T02:59:08.367Z,69.69
2019-03-03T03:01:40.454Z,70.06
2019-03-03T03:04:11.111Z,70.25
2019-03-03T03:06:46.006Z,69.73
2019-03-03T03:09:18.010Z,70.56
2019-03-03T03:11:58.770Z,70.45
2019-03-03T03:14:33.596Z,70.45
2019-03-03T03:17:17.254Z,69.88
2019-03-03T03:20:01.389Z,69.81
2019-03-03T03:22:33.321Z,71.15
2019-03-03T03:25:21.909Z,70.82
2019-03-03T03:28:02.768Z,70.82
2019-03-03T03:30:49.821Z,71.48
2019-03-03T03:33:24.756Z,71.26
2019-03-03T03:35:56.762Z,70.97
2019-03-03T03:38:28.730Z,71.10
2019-03-03T03:41:16.690Z,71.87
2019-03-03T03:43:57.845Z,71.53
2019-03-03T03:46:38.555Z,72.10
2019-03-03T03:49:10.561Z,72.21
2019-03-03T03:51:45.303Z,73.15
2019-03-03T03:54:35.478Z,72.97
2019-03-03T03:57:13.521Z,73.61
2019-03-03T03:59:45.506Z,74.47
2019-03-03T04:02:17.455Z,75.00
2019-03-03T04:04:55.197Z,75.65
2019-03-03T04:07:45.399Z,75.85
2019-03-03T04:10:20.389Z,76.21
2019-03-03T04:12:55.679Z,76.53
2019-03-03T04:15:33.661Z,77.03
2019-03-03T04:18:05.652Z,77.39
2019-03-03T04:20:40.700Z,78.03
2019-03-03T04:23:12.891Z,78.42
2019-03-03T04:26:01.133Z,79.11
2019-03-03T04:28:45.252Z,79.22
2019-03-03T04:31:17.226Z,80.43
2019-03-03T04:33:54.468Z,80.03
2019-03-03T04:36:26.544Z,80.17
2019-03-03T04:39:01.193Z,80.81
2019-03-03T04:41:35.912Z,80.86
2019-03-03T04:44:22.749Z,80.56
2019-03-03T04:47:00.567Z,80.61
2019-03-03T04:49:41.317Z,80.73
2019-03-03T04:52:25.205Z,80.80
2019-03-03T04:55:15.540Z,80.84
2019-03-03T04:57:50.594Z,80.95
2019-03-03T05:00:34.679Z,80.96
2019-03-03T05:03:22.967Z,80.83
2019-03-03T05:05:57.917Z,80.92
2019-03-03T05:08:29.887Z,80.62
2019-03-03T05:11:01.868Z,80.19
2019-03-03T05:13:33.879Z,80.43
2019-03-03T05:16:20.971Z,80.06
2019-03-03T05:18:52.966Z,80.21
2019-03-03T05:21:23.448Z,80.17
2019-03-03T05:23:53.960Z,80.17
2019-03-03T05:26:24.514Z,80.27
2019-03-03T05:28:54.936Z,79.79
2019-03-03T05:31:25.352Z,79.50
2019-03-03T05:33:55.829Z,79.24
2019-03-03T05:36:26.289Z,78.52
2019-03-03T05:38:56.716Z,78.38
2019-03-03T05:41:27.156Z,77.82
2019-03-03T05:43:57.603Z,77.15
2019-03-03T05:46:28.106Z,77.15
2019-03-03T05:48:58.621Z,76.72
2019-03-03T05:51:29.032Z,76.87
2019-03-03T05:53:59.573Z,76.87
2019-03-03T05:56:30.080Z,76.14
2019-03-03T05:59:00.474Z,76.39
2019-03-03T06:01:30.875Z,76.25
2019-03-03T06:04:01.392Z,76.25
2019-03-03T06:06:31.872Z,76.70
2019-03-03T06:09:02.441Z,76.70
2019-03-03T06:11:33.036Z,76.10
2019-03-03T06:14:03.403Z,74.30
2019-03-03T06:16:33.925Z,73.84
2019-03-03T06:19:04.307Z,73.15
2019-03-03T06:21:34.719Z,73.46
2019-03-03T06:24:05.262Z,73.03
2019-03-03T06:26:35.691Z,72.79
2019-03-03T06:29:06.220Z,73.24
2019-03-03T06:31:37.776Z,72.76
2019-03-03T06:34:09.123Z,72.76
2019-03-03T06:36:39.549Z,73.37
2019-03-03T06:39:10.030Z,72.23
2019-03-03T06:41:40.418Z,71.50
2019-03-03T06:44:10.883Z,71.50
2019-03-03T06:46:41.427Z,66.15
2019-03-03T06:49:12.679Z,66.15
2019-03-03T06:51:43.200Z,66.40
2019-03-03T06:54:13.635Z,62.84
2019-03-03T06:56:44.030Z,61.67
2019-03-03T06:59:16.677Z,62.69
2019-03-03T07:01:47.105Z,61.01
2019-03-03T07:04:17.651Z,60.25
2019-03-03T07:06:48.212Z,59.28
2019-03-03T07:09:18.893Z,56.81
2019-03-03T07:11:49.320Z,56.83
2019-03-03T07:14:19.714Z,57.17
2019-03-03T07:16:50.243Z,57.06
2019-03-03T07:19:20.671Z,54.94
2019-03-03T07:21:51.085Z,53.87
2019-03-03T07:24:23.079Z,54.29
2019-03-03T07:26:53.487Z,53.21
2019-03-03T07:29:25.443Z,52.80
2019-03-03T07:31:55.926Z,52.76
2019-03-03T07:34:27.935Z,53.22
2019-03-03T07:36:58.365Z,52.86
2019-03-03T07:39:29.164Z,50.84
2019-03-03T07:42:05.648Z,51.42
2019-03-03T07:44:36.578Z,49.81
2019-03-03T07:47:07.166Z,49.21
2019-03-03T07:49:54.244Z,49.21
2019-03-03T07:52:26.109Z,48.95
2019-03-03T07:54:56.660Z,47.79
2019-03-03T07:57:27.067Z,46.37
2019-03-03T07:59:57.603Z,45.46
2019-03-03T08:02:28.786Z,45.39
2019-03-03T08:04:59.249Z,45.78
2019-03-03T08:07:29.674Z,45.88
2019-03-03T08:10:00.259Z,45.52
2019-03-03T08:12:30.769Z,45.13
2019-03-03T08:15:02.125Z,44.88
2019-03-03T08:17:32.556Z,45.35
2019-03-03T08:20:02.958Z,44.49
2019-03-03T08:22:33.377Z,44.83
2019-03-03T08:25:05.573Z,44.50
2019-03-03T08:27:37.539Z,44.50
2019-03-03T08:30:14.568Z,45.40
2019-03-03T08:32:47.068Z,45.40
2019-03-03T08:35:29.302Z,45.55
2019-03-03T08:37:59.788Z,45.53
2019-03-03T08:40:30.255Z,45.81
2019-03-03T08:43:08.112Z,46.87
2019-03-03T08:45:55.814Z,46.87
2019-03-03T08:48:36.923Z,46.27
2019-03-03T08:51:14.846Z,45.71
2019-03-03T08:53:52.680Z,46.25
2019-03-03T08:56:36.761Z,45.94
2019-03-03T08:59:23.899Z,45.94
2019-03-03T09:02:01.842Z,45.00
2019-03-03T09:04:39.822Z,45.00
2019-03-03T09:07:14.803Z,44.13
2019-03-03T09:09:49.610Z,44.85
2019-03-03T09:12:23.212Z,44.80
2019-03-03T09:15:03.652Z,44.49
2019-03-03T09:17:51.589Z,41.33
2019-03-03T09:20:23.931Z,40.89
2019-03-03T09:23:02.078Z,40.32
2019-03-03T09:25:34.370Z,39.12
2019-03-03T09:28:12.106Z,39.09
2019-03-03T09:30:47.146Z,39.36
2019-03-03T09:33:26.255Z,38.70
2019-03-03T09:36:12.043Z,38.51
2019-03-03T09:38:53.066Z,38.40
2019-03-03T09:41:41.212Z,38.31
2019-03-03T09:44:19.034Z,37.72
2019-03-03T09:46:57.191Z,37.47
2019-03-03T09:49:29.253Z,36.85
2019-03-03T09:52:07.106Z,36.53
2019-03-03T09:54:42.080Z,36.39
2019-03-03T09:57:25.431Z,37.13
2019-03-03T10:00:04.218Z,37.87
2019-03-03T10:02:42.369Z,38.45
2019-03-03T10:05:26.553Z,39.06
2019-03-03T10:08:10.486Z,39.18
2019-03-03T10:10:45.288Z,39.37
2019-03-03T10:13:32.556Z,40.01
2019-03-03T10:16:08.055Z,40.28
2019-03-03T10:18:54.943Z,39.57
2019-03-03T10:21:35.839Z,39.12
2019-03-03T10:24:15.367Z,39.17
2019-03-03T10:27:04.943Z,40.33
2019-03-03T10:29:40.084Z,40.20
2019-03-03T10:32:13.134Z,40.02
2019-03-03T10:34:54.155Z,40.51
2019-03-03T10:37:30.515Z,40.81
2019-03-03T10:40:06.110Z,41.29
2019-03-03T10:42:46.369Z,40.79
2019-03-03T10:45:20.899Z,41.28
2019-03-03T10:47:56.004Z,41.43
2019-03-03T10:50:33.940Z,42.25
2019-03-03T10:53:07.364Z,41.45
2019-03-03T10:55:39.450Z,41.20
2019-03-03T10:58:27.820Z,41.72
2019-03-03T11:01:00.013Z,41.20
2019-03-03T11:03:44.225Z,41.37
2019-03-03T11:06:25.351Z,41.70
2019-03-03T11:08:57.370Z,41.79
2019-03-03T11:11:29.429Z,41.64
2019-03-03T11:14:20.318Z,41.32
2019-03-03T11:16:55.225Z,41.79
2019-03-03T11:19:27.128Z,41.42
2019-03-03T11:22:07.904Z,41.82
2019-03-03T11:24:42.803Z,41.18
2019-03-03T11:27:20.599Z,42.13
2019-03-03T11:30:08.633Z,41.75
2019-03-03T11:32:50.828Z,42.11
2019-03-03T11:35:34.815Z,41.60
2019-03-03T11:38:06.776Z,41.20
2019-03-03T11:40:41.413Z,41.58
2019-03-03T11:43:22.159Z,42.07
2019-03-03T11:46:11.352Z,41.28
2019-03-03T11:48:52.392Z,40.70
2019-03-03T11:51:24.505Z,40.50
2019-03-03T11:54:11.678Z,41.35
2019-03-03T11:56:46.697Z,41.24
2019-03-03T11:59:27.654Z,41.91
2019-03-03T12:02:02.939Z,41.61
2019-03-03T12:04:41.151Z,40.89
2019-03-03T12:07:28.271Z,40.69
2019-03-03T12:10:07.641Z,40.05
2019-03-03T12:12:56.214Z,39.93
2019-03-03T12:15:36.041Z,39.59
2019-03-03T12:21:06.784Z,39.74
2019-03-03T12:23:47.846Z,40.27
2019-03-03T12:26:37.009Z,39.98
2019-03-03T12:29:25.155Z,40.07
2019-03-03T12:32:13.371Z,40.26
2019-03-03T12:35:01.219Z,40.18
2019-03-03T12:37:35.698Z,40.29
2019-03-03T12:40:23.127Z,40.45
2019-03-03T12:42:57.971Z,39.91
2019-03-03T12:45:46.236Z,39.74
2019-03-03T12:48:21.523Z,39.36
2019-03-03T12:51:08.545Z,39.69
2019-03-03T12:53:40.699Z,39.60
2019-03-03T12:56:28.847Z,39.71
2019-03-03T12:59:13.522Z,40.45
2019-03-03T13:02:01.570Z,39.95
2019-03-03T13:04:49.890Z,39.82
2019-03-03T13:07:27.894Z,40.10
2019-03-03T13:10:15.726Z,38.10
2019-03-03T13:13:04.071Z,38.27
2019-03-03T13:15:53.456Z,37.82
2019-03-03T13:18:34.312Z,38.07
2019-03-03T13:21:18.261Z,38.07
2019-03-03T13:23:54.989Z,38.16
2019-03-03T13:26:31.600Z,38.55
2019-03-03T13:29:24.133Z,38.59
2019-03-03T13:32:05.012Z,38.86
2019-03-03T13:34:43.239Z,39.25
2019-03-03T13:37:24.072Z,39.39
2019-03-03T13:39:58.942Z,39.61
2019-03-03T13:42:33.883Z,38.90
2019-03-03T13:45:08.346Z,38.72
2019-03-03T13:47:40.997Z,37.99
2019-03-03T13:50:20.214Z,38.66
2019-03-03T13:52:51.668Z,38.53
2019-03-03T13:55:22.081Z,38.46
2019-03-03T13:57:59.544Z,39.11
2019-03-03T14:00:34.076Z,39.14
2019-03-03T14:03:08.403Z,39.67
2019-03-03T14:05:40.363Z,39.26
2019-03-03T14:08:16.144Z,39.23
2019-03-03T14:10:49.036Z,38.71
2019-03-03T14:13:19.504Z,38.81
2019-03-03T14:15:54.947Z,38.96
2019-03-03T14:18:26.912Z,39.04
2019-03-03T14:20:57.415Z,39.34
2019-03-03T14:23:27.838Z,38.56
2019-03-03T14:25:58.369Z,38.89
2019-03-03T14:28:39.344Z,39.42
2019-03-03T14:31:17.062Z,39.25
2019-03-03T14:33:52.052Z,39.74
2019-03-03T14:36:23.803Z,40.19
2019-03-03T14:38:54.261Z,40.22
2019-03-03T14:41:24.707Z,40.43
2019-03-03T14:43:57.003Z,40.65
2019-03-03T14:46:27.442Z,40.51
2019-03-03T14:48:57.939Z,40.88
2019-03-03T14:51:40.265Z,41.43
2019-03-03T14:54:12.255Z,41.07
2019-03-03T14:56:45.955Z,40.93
2019-03-03T14:59:20.015Z,42.38
2019-03-03T15:01:58.427Z,42.75
2019-03-03T15:04:43.882Z,42.25
2019-03-03T15:07:17.079Z,42.63
2019-03-03T15:09:47.873Z,43.40
2019-03-03T15:12:27.238Z,43.80
2019-03-03T15:14:58.158Z,44.70
2019-03-03T15:17:36.575Z,45.20
2019-03-03T15:20:08.701Z,45.44
2019-03-03T15:23:12.019Z,44.48
2019-03-03T15:26:07.889Z,45.86
2019-03-03T15:32:03.929Z,45.99
2019-03-03T15:37:48.049Z,46.83
2019-03-03T15:40:35.605Z,46.47
2019-03-03T15:43:08.536Z,47.09
2019-03-03T15:45:39.074Z,47.95
2019-03-03T15:48:11.243Z,48.09
2019-03-03T15:54:19.387Z,48.26
2019-03-03T15:56:50.580Z,48.86
2019-03-03T15:59:28.604Z,47.83
2019-03-03T16:02:08.067Z,47.88
2019-03-03T16:04:41.265Z,47.75
2019-03-03T16:07:11.276Z,48.47
2019-03-03T16:09:41.905Z,49.10
2019-03-03T16:12:12.391Z,49.49
2019-03-03T16:14:49.410Z,49.70
2019-03-03T16:17:23.490Z,49.62
2019-03-03T16:20:01.539Z,50.67
2019-03-03T16:22:49.101Z,49.51
2019-03-03T16:25:25.967Z,49.27
2019-03-03T16:31:16.455Z,50.64
2019-03-03T16:33:53.305Z,49.73
2019-03-03T16:36:42.493Z,48.83
2019-03-03T16:39:31.270Z,50.24
2019-03-03T16:42:04.511Z,48.85
2019-03-03T16:44:39.846Z,48.88
2019-03-03T16:47:14.422Z,50.47
